createdAt,value
2017-08-29T00:01:11.439Z,10.52
2017-08-29T00:03:41.933Z,10.18
2017-08-29T00:06:12.686Z,10.30
2017-08-29T00:08:42.819Z,10.68
2017-08-29T00:11:13.383Z,10.40
2017-08-29T00:13:43.436Z,10.43
2017-08-29T00:16:13.339Z,10.63
2017-08-29T00:18:43.831Z,10.30
2017-08-29T00:21:13.818Z,11.07
2017-08-29T00:23:44.305Z,10.13
2017-08-29T00:26:14.224Z,11.07
2017-08-29T00:28:44.073Z,10.90
2017-08-29T00:31:14.343Z,11.30
2017-08-29T00:33:44.146Z,10.82
2017-08-29T00:36:14.123Z,10.10
2017-08-29T00:38:44.446Z,10.60
2017-08-29T00:41:14.353Z,11.02
2017-08-29T00:43:45.651Z,11.12
2017-08-29T00:46:15.643Z,10.60
2017-08-29T00:48:45.412Z,11.88
2017-08-29T00:51:15.281Z,11.23
2017-08-29T00:53:44.995Z,11.27
2017-08-29T00:56:15.567Z,11.40
2017-08-29T00:58:45.577Z,11.10
2017-08-29T01:01:15.554Z,11.10
2017-08-29T01:03:45.751Z,10.70
2017-08-29T01:06:15.685Z,11.00
2017-08-29T01:08:45.566Z,11.23
2017-08-29T01:11:15.683Z,11.20
2017-08-29T01:13:45.466Z,10.13
2017-08-29T01:16:15.895Z,10.07
2017-08-29T01:18:45.739Z,10.60
2017-08-29T01:21:15.688Z,10.68
2017-08-29T01:23:46.159Z,10.60
2017-08-29T01:26:16.911Z,10.55
2017-08-29T01:28:46.917Z,10.50
2017-08-29T01:31:16.927Z,10.83
2017-08-29T01:33:47.763Z,11.20
2017-08-29T01:36:18.263Z,10.30
2017-08-29T01:38:48.306Z,10.05
2017-08-29T01:41:18.435Z,9.95
2017-08-29T01:43:48.983Z,10.17
2017-08-29T01:46:19.100Z,10.20
2017-08-29T01:48:49.067Z,10.10
2017-08-29T01:51:18.948Z,10.73
2017-08-29T01:53:49.052Z,10.30
2017-08-29T01:56:19.439Z,10.75
2017-08-29T01:58:49.326Z,10.70
2017-08-29T02:01:19.340Z,10.65
2017-08-29T02:03:49.445Z,10.32
2017-08-29T02:06:19.375Z,10.20
2017-08-29T02:08:49.775Z,10.75
2017-08-29T02:11:19.716Z,11.18
2017-08-29T02:13:49.359Z,10.60
2017-08-29T02:16:19.956Z,10.20
2017-08-29T02:18:50.004Z,11.12
2017-08-29T02:21:19.534Z,10.02
2017-08-29T02:23:49.092Z,10.63
2017-08-29T02:26:18.588Z,11.00
2017-08-29T02:28:48.442Z,10.10
2017-08-29T02:31:18.502Z,10.48
2017-08-29T02:33:48.636Z,9.77
2017-08-29T02:36:18.992Z,10.27
2017-08-29T02:38:48.779Z,10.00
2017-08-29T02:41:18.526Z,10.07
2017-08-29T02:43:48.676Z,10.70
2017-08-29T02:46:18.524Z,10.40
2017-08-29T02:48:48.879Z,10.10
2017-08-29T02:51:19.043Z,10.75
2017-08-29T02:53:48.585Z,11.23
2017-08-29T02:56:18.559Z,10.57
2017-08-29T02:58:48.381Z,9.85
2017-08-29T03:01:18.703Z,10.17
2017-08-29T03:03:49.628Z,10.70
2017-08-29T03:06:19.445Z,9.50
2017-08-29T03:08:49.565Z,9.60
2017-08-29T03:11:19.339Z,9.93
2017-08-29T03:13:49.336Z,10.30
2017-08-29T03:16:19.487Z,10.50
2017-08-29T03:18:49.631Z,10.60
2017-08-29T03:21:20.160Z,11.18
2017-08-29T03:23:49.931Z,11.02
2017-08-29T03:26:19.636Z,11.00
2017-08-29T03:28:49.810Z,11.18
2017-08-29T03:31:19.661Z,10.65
2017-08-29T03:33:49.769Z,10.63
2017-08-29T03:36:20.771Z,10.87
2017-08-29T03:38:50.629Z,9.63
2017-08-29T03:41:21.197Z,10.80
2017-08-29T03:43:51.252Z,10.98
2017-08-29T03:46:21.103Z,10.53
2017-08-29T03:48:51.306Z,10.50
2017-08-29T03:51:21.807Z,10.40
2017-08-29T03:53:51.319Z,10.70
2017-08-29T03:56:20.911Z,10.93
2017-08-29T03:58:50.443Z,10.27
2017-08-29T04:01:20.864Z,10.32
2017-08-29T04:03:50.823Z,10.60
2017-08-29T04:06:20.372Z,10.10
2017-08-29T04:08:49.906Z,11.20
2017-08-29T04:11:19.427Z,11.00
2017-08-29T04:13:49.199Z,10.90
2017-08-29T04:16:18.744Z,10.30
2017-08-29T04:18:48.616Z,10.70
2017-08-29T04:21:19.167Z,10.57
2017-08-29T04:23:48.935Z,10.30
2017-08-29T04:26:19.176Z,11.12
2017-08-29T04:28:49.101Z,11.00
2017-08-29T04:31:19.871Z,11.18
2017-08-29T04:33:50.171Z,9.93
2017-08-29T04:36:20.128Z,9.82
2017-08-29T04:38:49.945Z,9.82
2017-08-29T04:41:19.838Z,11.00
2017-08-29T04:43:49.607Z,10.88
2017-08-29T04:46:19.876Z,10.37
2017-08-29T04:48:49.452Z,9.85
2017-08-29T04:51:19.319Z,10.17
2017-08-29T04:53:49.655Z,10.40
2017-08-29T04:56:19.243Z,10.70
2017-08-29T04:58:49.211Z,9.98
2017-08-29T05:01:19.297Z,10.50
2017-08-29T05:03:49.506Z,9.93
2017-08-29T05:06:19.761Z,10.30
2017-08-29T05:08:49.419Z,9.57
2017-08-29T05:11:18.963Z,9.70
2017-08-29T05:13:49.617Z,9.88
2017-08-29T05:16:19.432Z,10.10
2017-08-29T05:18:49.339Z,10.10
2017-08-29T05:21:19.056Z,9.90
2017-08-29T05:23:49.442Z,9.90
2017-08-29T05:26:20.436Z,9.70
2017-08-29T05:28:50.814Z,10.05
2017-08-29T05:31:20.421Z,10.00
2017-08-29T05:33:50.472Z,9.90
2017-08-29T05:36:19.999Z,9.90
2017-08-29T05:40:19.421Z,9.30
2017-08-29T05:42:49.768Z,9.60
2017-08-29T05:45:19.344Z,9.20
2017-08-29T05:47:49.230Z,10.18
2017-08-29T05:50:19.933Z,9.00
2017-08-29T05:52:49.822Z,9.80
2017-08-29T05:55:19.830Z,9.50
2017-08-29T05:57:49.637Z,8.88
2017-08-29T06:00:19.477Z,24.15
2017-08-29T06:02:49.539Z,11.80
2017-08-29T06:05:19.272Z,10.45
2017-08-29T06:07:48.896Z,9.80
2017-08-29T06:10:18.868Z,9.02
2017-08-29T06:12:49.310Z,9.10
2017-08-29T06:15:19.756Z,9.80
2017-08-29T06:17:49.680Z,8.82
2017-08-29T06:20:19.336Z,9.23
2017-08-29T06:22:49.488Z,9.25
2017-08-29T06:25:19.947Z,9.40
2017-08-29T06:27:49.567Z,8.60
2017-08-29T06:30:20.097Z,8.10
2017-08-29T06:32:50.043Z,7.93
2017-08-29T06:35:20.852Z,7.37
2017-08-29T06:37:50.556Z,7.47
2017-08-29T06:40:20.115Z,7.70
2017-08-29T06:42:50.143Z,7.93
2017-08-29T06:45:19.854Z,7.50
2017-08-29T06:47:49.557Z,7.20
2017-08-29T06:50:19.120Z,6.32
2017-08-29T06:52:48.816Z,7.30
2017-08-29T06:55:19.532Z,7.20
2017-08-29T06:57:49.912Z,7.07
2017-08-29T07:00:19.467Z,6.67
2017-08-29T07:02:50.075Z,6.70
2017-08-29T07:05:19.639Z,7.30
2017-08-29T07:07:49.270Z,7.07
2017-08-29T07:10:18.846Z,6.37
2017-08-29T07:12:48.555Z,6.60
2017-08-29T07:15:18.483Z,6.97
2017-08-29T07:17:48.257Z,7.22
2017-08-29T07:20:18.633Z,6.80
2017-08-29T07:22:48.237Z,6.95
2017-08-29T07:25:17.864Z,7.07
2017-08-29T07:27:47.944Z,6.40
2017-08-29T07:30:17.587Z,6.65
2017-08-29T07:32:47.195Z,6.68
2017-08-29T07:35:16.744Z,6.85
2017-08-29T07:37:46.434Z,6.95
2017-08-29T07:40:16.274Z,6.65
2017-08-29T07:42:45.978Z,7.40
2017-08-29T07:45:15.752Z,7.03
2017-08-29T07:47:45.724Z,7.12
2017-08-29T07:50:15.547Z,6.85
2017-08-29T07:52:45.433Z,6.70
2017-08-29T07:55:28.081Z,6.60
2017-08-29T07:57:57.801Z,7.40
2017-08-29T08:00:27.747Z,7.37
2017-08-29T08:02:58.201Z,7.05
2017-08-29T08:05:28.511Z,7.75
2017-08-29T08:07:58.372Z,7.37
2017-08-29T08:10:28.006Z,7.73
2017-08-29T08:12:57.934Z,7.35
2017-08-29T08:15:27.787Z,7.43
2017-08-29T08:17:57.448Z,8.60
2017-08-29T08:20:28.191Z,7.30
2017-08-29T08:22:58.174Z,7.22
2017-08-29T08:25:27.915Z,7.57
2017-08-29T08:27:57.832Z,8.38
2017-08-29T08:30:27.508Z,7.60
2017-08-29T08:32:57.097Z,7.68
2017-08-29T08:35:26.778Z,7.10
2017-08-29T08:37:56.499Z,7.20
2017-08-29T08:40:26.543Z,8.47
2017-08-29T08:42:56.131Z,7.90
2017-08-29T08:45:26.464Z,7.70
2017-08-29T08:47:56.892Z,7.10
2017-08-29T08:50:26.537Z,8.35
2017-08-29T08:52:56.873Z,7.80
2017-08-29T08:55:27.312Z,7.77
2017-08-29T08:57:57.185Z,7.72
2017-08-29T09:00:27.628Z,8.70
2017-08-29T09:03:01.486Z,7.47
2017-08-29T09:05:31.726Z,7.95
2017-08-29T09:08:01.367Z,8.35
2017-08-29T09:10:31.068Z,7.90
2017-08-29T09:13:00.970Z,7.40
2017-08-29T09:15:30.721Z,7.95
2017-08-29T09:18:02.931Z,7.82
2017-08-29T09:20:33.386Z,8.10
2017-08-29T09:23:03.191Z,7.00
2017-08-29T09:25:33.390Z,8.02
2017-08-29T09:28:03.478Z,7.60
2017-08-29T09:30:33.083Z,8.32
2017-08-29T09:33:03.058Z,8.00
2017-08-29T09:35:33.495Z,7.80
2017-08-29T09:38:03.573Z,8.13
2017-08-29T09:40:34.690Z,8.60
2017-08-29T09:43:04.433Z,8.90
2017-08-29T09:45:34.299Z,8.48
2017-08-29T09:48:03.894Z,8.40
2017-08-29T09:50:33.488Z,8.40
2017-08-29T09:53:03.755Z,8.85
2017-08-29T09:55:33.449Z,9.05
2017-08-29T09:58:03.116Z,8.25
2017-08-29T10:00:32.828Z,8.70
2017-08-29T10:03:03.386Z,8.90
2017-08-29T10:05:33.980Z,8.77
2017-08-29T10:08:03.643Z,9.05
2017-08-29T10:10:33.270Z,9.45
2017-08-29T10:13:03.139Z,8.70
2017-08-29T10:15:39.439Z,9.38
2017-08-29T10:18:16.051Z,9.80
2017-08-29T10:20:45.908Z,9.07
2017-08-29T10:23:15.501Z,9.57
2017-08-29T10:25:46.318Z,9.50
2017-08-29T10:28:15.876Z,9.77
2017-08-29T10:30:45.460Z,9.23
2017-08-29T10:33:15.074Z,10.63
2017-08-29T10:35:44.771Z,10.60
2017-08-29T10:38:14.744Z,9.45
2017-08-29T10:40:45.220Z,9.60
2017-08-29T10:43:14.831Z,8.90
2017-08-29T10:45:54.832Z,8.18
2017-08-29T10:48:24.383Z,8.40
2017-08-29T10:50:54.749Z,9.50
2017-08-29T10:53:25.524Z,8.98
2017-08-29T10:55:55.482Z,8.38
2017-08-29T10:58:25.365Z,9.00
2017-08-29T11:00:55.772Z,7.73
2017-08-29T11:03:26.803Z,8.47
2017-08-29T11:05:57.103Z,7.68
2017-08-29T11:08:26.712Z,8.60
2017-08-29T11:10:56.673Z,8.00
2017-08-29T11:13:27.239Z,7.80
2017-08-29T11:15:56.823Z,7.30
2017-08-29T11:18:26.734Z,8.27
2017-08-29T11:20:57.315Z,8.05
2017-08-29T11:23:26.919Z,9.00
2017-08-29T11:25:56.922Z,8.63
2017-08-29T11:28:26.707Z,8.70
2017-08-29T11:30:57.136Z,8.90
2017-08-29T11:33:33.878Z,8.25
2017-08-29T11:36:03.475Z,8.40
2017-08-29T11:38:33.911Z,9.07
2017-08-29T11:41:03.521Z,8.70
2017-08-29T11:43:33.132Z,10.07
2017-08-29T11:46:02.900Z,8.90
2017-08-29T11:48:32.633Z,9.60
2017-08-29T11:51:08.383Z,9.63
2017-08-29T11:53:38.156Z,9.30
2017-08-29T11:56:07.871Z,9.43
2017-08-29T11:58:38.020Z,10.05
2017-08-29T12:01:07.900Z,10.13
2017-08-29T12:03:37.583Z,9.52
2017-08-29T12:06:07.618Z,10.03
2017-08-29T12:08:38.166Z,9.80
2017-08-29T12:11:08.628Z,9.87
2017-08-29T12:13:40.098Z,10.80
2017-08-29T12:16:28.049Z,10.70
2017-08-29T12:19:00.362Z,9.80
2017-08-29T12:21:30.578Z,10.10
2017-08-29T12:24:03.581Z,10.95
2017-08-29T12:26:33.598Z,10.23
2017-08-29T12:29:03.539Z,11.07
2017-08-29T12:31:33.417Z,10.10
2017-08-29T12:34:03.375Z,10.30
2017-08-29T12:36:33.416Z,11.48
2017-08-29T12:39:03.359Z,11.00
2017-08-29T12:41:34.450Z,12.35
2017-08-29T12:44:09.175Z,12.35
2017-08-29T12:46:39.084Z,11.60
2017-08-29T12:49:08.653Z,11.70
2017-08-29T12:51:39.036Z,13.00
2017-08-29T12:54:12.147Z,11.10
2017-08-29T12:56:42.955Z,11.93
2017-08-29T12:59:19.468Z,12.93
2017-08-29T13:01:49.640Z,13.80
2017-08-29T13:04:23.818Z,13.73
2017-08-29T13:06:53.805Z,12.20
2017-08-29T13:09:26.554Z,13.25
2017-08-29T13:11:56.771Z,13.40
2017-08-29T13:14:27.390Z,13.32
2017-08-29T13:19:45.585Z,13.87
2017-08-29T13:22:19.707Z,13.38
2017-08-29T13:24:54.732Z,13.23
2017-08-29T13:27:25.235Z,13.02
2017-08-29T13:29:54.920Z,12.18
2017-08-29T13:32:26.984Z,12.75
2017-08-29T13:34:58.596Z,12.50
2017-08-29T13:37:28.416Z,12.98
2017-08-29T13:39:58.024Z,12.00
2017-08-29T13:42:27.753Z,12.60
2017-08-29T13:44:58.090Z,12.87
2017-08-29T13:47:29.854Z,13.30
2017-08-29T13:49:59.563Z,13.18
2017-08-29T13:52:29.253Z,13.90
2017-08-29T13:54:58.945Z,13.70
2017-08-29T13:57:29.024Z,13.30
2017-08-29T14:00:08.255Z,14.00
2017-08-29T14:02:37.884Z,14.55
2017-08-29T14:05:07.929Z,13.40
2017-08-29T14:07:38.396Z,13.98
2017-08-29T14:10:14.639Z,13.50
2017-08-29T14:12:45.154Z,12.20
2017-08-29T14:15:14.746Z,12.10
2017-08-29T14:17:44.531Z,13.13
2017-08-29T14:20:14.596Z,13.27
2017-08-29T14:22:50.330Z,12.10
2017-08-29T14:25:20.956Z,12.70
2017-08-29T14:27:50.728Z,13.50
2017-08-29T14:30:20.846Z,11.23
2017-08-29T14:32:55.728Z,11.80
2017-08-29T14:35:25.424Z,12.23
2017-08-29T14:38:04.491Z,11.68
2017-08-29T14:40:34.463Z,12.48
2017-08-29T14:43:04.204Z,11.20
2017-08-29T14:45:34.859Z,11.80
2017-08-29T14:49:15.409Z,11.52
2017-08-29T14:51:46.334Z,11.32
2017-08-29T14:54:20.253Z,10.32
2017-08-29T14:56:57.808Z,11.12
2017-08-29T14:59:29.888Z,11.37
2017-08-29T15:01:59.507Z,12.20
2017-08-29T15:04:29.040Z,11.68
2017-08-29T15:06:58.751Z,11.00
2017-08-29T15:09:28.373Z,11.00
2017-08-29T15:11:58.206Z,10.32
2017-08-29T15:14:28.921Z,10.43
2017-08-29T15:16:59.315Z,10.15
2017-08-29T15:19:28.998Z,10.00
2017-08-29T15:21:58.941Z,11.07
2017-08-29T15:24:31.005Z,10.82
2017-08-29T15:27:00.669Z,10.93
2017-08-29T15:29:31.151Z,9.97
2017-08-29T15:32:01.206Z,9.95
2017-08-29T15:34:30.781Z,10.40
2017-08-29T15:37:00.820Z,10.57
2017-08-29T15:39:31.714Z,11.35
2017-08-29T15:42:03.179Z,10.88
2017-08-29T15:44:33.038Z,10.30
2017-08-29T15:47:02.723Z,10.65
2017-08-29T15:49:32.299Z,10.27
2017-08-29T15:52:02.223Z,10.32
2017-08-29T15:54:31.787Z,10.70
2017-08-29T15:57:01.356Z,9.23
2017-08-29T15:59:31.306Z,10.65
2017-08-29T16:02:01.759Z,10.68
2017-08-29T16:04:31.815Z,10.75
2017-08-29T16:07:01.710Z,10.40
2017-08-29T16:09:31.895Z,11.40
2017-08-29T16:12:01.471Z,10.60
2017-08-29T16:14:31.163Z,10.27
2017-08-29T16:17:01.115Z,9.93
2017-08-29T16:19:31.744Z,10.30
2017-08-29T16:22:02.302Z,9.63
2017-08-29T16:24:32.114Z,9.60
2017-08-29T16:27:01.675Z,10.30
2017-08-29T16:29:31.629Z,9.85
2017-08-29T16:32:11.640Z,10.77
2017-08-29T16:34:42.219Z,10.20
2017-08-29T16:37:12.079Z,9.97
2017-08-29T16:39:41.826Z,10.48
2017-08-29T16:42:11.666Z,11.03
2017-08-29T16:44:41.607Z,9.93
2017-08-29T16:47:11.256Z,10.50
2017-08-29T16:49:41.078Z,9.88
2017-08-29T16:52:10.764Z,10.98
2017-08-29T16:54:40.364Z,10.40
2017-08-29T16:57:10.013Z,10.90
2017-08-29T16:59:39.534Z,10.07
2017-08-29T17:02:09.368Z,11.30
2017-08-29T17:04:39.035Z,11.05
2017-08-29T17:07:08.716Z,11.12
2017-08-29T17:09:39.372Z,10.90
2017-08-29T17:12:09.643Z,11.55
2017-08-29T17:14:39.255Z,11.85
2017-08-29T17:17:08.851Z,10.90
2017-08-29T17:19:38.435Z,11.63
2017-08-29T17:22:09.142Z,11.10
2017-08-29T17:24:38.838Z,12.15
2017-08-29T17:27:08.427Z,11.30
2017-08-29T17:29:39.617Z,11.70
2017-08-29T17:32:09.293Z,11.55
2017-08-29T17:34:39.323Z,11.40
2017-08-29T17:37:09.341Z,12.48
2017-08-29T17:39:38.967Z,13.55
2017-08-29T17:42:08.908Z,12.40
2017-08-29T17:44:38.539Z,11.40
2017-08-29T17:47:08.098Z,12.57
2017-08-29T17:49:40.868Z,12.75
2017-08-29T17:52:16.877Z,13.70
2017-08-29T17:54:48.918Z,12.95
2017-08-29T17:57:19.566Z,13.25
2017-08-29T17:59:53.760Z,13.43
2017-08-29T18:02:24.447Z,12.90
2017-08-29T18:04:54.442Z,13.60
2017-08-29T18:07:24.227Z,13.70
2017-08-29T18:09:54.262Z,14.20
2017-08-29T18:12:24.449Z,13.10
2017-08-29T18:14:59.950Z,13.37
2017-08-29T18:17:30.396Z,13.80
2017-08-29T18:20:00.860Z,14.25
2017-08-29T18:22:30.751Z,14.20
2017-08-29T18:25:00.395Z,13.70
2017-08-29T18:27:29.978Z,13.90
2017-08-29T18:30:07.765Z,12.70
2017-08-29T18:32:42.714Z,12.80
2017-08-29T18:35:13.036Z,12.47
2017-08-29T18:37:53.158Z,13.10
2017-08-29T18:40:25.103Z,13.23
2017-08-29T18:42:55.673Z,14.37
2017-08-29T18:45:25.872Z,13.85
2017-08-29T18:47:56.203Z,13.82
2017-08-29T18:50:26.777Z,14.07
2017-08-29T18:52:56.990Z,14.07
2017-08-29T18:55:27.021Z,14.93
2017-08-29T18:57:56.966Z,14.35
2017-08-29T19:00:26.900Z,13.60
2017-08-29T19:02:57.861Z,13.80
2017-08-29T19:05:27.983Z,14.13
2017-08-29T19:07:58.315Z,15.30
2017-08-29T19:10:29.338Z,15.70
2017-08-29T19:12:59.215Z,17.10
2017-08-29T19:15:29.395Z,16.17
2017-08-29T19:17:59.396Z,16.50
2017-08-29T19:20:29.231Z,15.47
2017-08-29T19:22:59.593Z,15.35
2017-08-29T19:25:30.447Z,16.30
2017-08-29T19:28:00.333Z,14.70
2017-08-29T19:30:31.092Z,14.73
2017-08-29T19:33:02.931Z,14.25
2017-08-29T19:35:34.134Z,14.68
2017-08-29T19:38:05.962Z,14.63
2017-08-29T19:40:37.625Z,14.52
2017-08-29T19:43:08.790Z,15.88
